createdAt,value
2023-02-24T00:02:15.128Z,3.95
2023-02-24T00:04:42.692Z,3.80
2023-02-24T00:07:12.714Z,3.97
2023-02-24T00:09:40.485Z,3.60
2023-02-24T00:12:09.274Z,3.92
2023-02-24T00:14:37.634Z,5.32
2023-02-24T00:17:06.333Z,4.20
2023-02-24T00:19:34.012Z,4.45
2023-02-24T00:22:02.285Z,3.83
2023-02-24T00:24:29.956Z,3.90
2023-02-24T00:26:59.538Z,4.10
2023-02-24T00:29:28.759Z,4.05
2023-02-24T00:31:59.337Z,4.20
2023-02-24T00:34:28.052Z,3.90
2023-02-24T00:36:57.403Z,4.18
2023-02-24T00:39:35.638Z,3.90
2023-02-24T00:42:05.067Z,4.07
2023-02-24T00:44:40.291Z,4.18
2023-02-24T00:47:08.585Z,4.10
2023-02-24T00:49:42.047Z,4.05
2023-02-24T00:52:14.418Z,3.97
2023-02-24T00:54:42.862Z,3.85
2023-02-24T00:57:10.515Z,4.03
2023-02-24T00:59:38.286Z,3.63
2023-02-24T01:02:07.246Z,3.83
2023-02-24T01:04:35.256Z,4.80
2023-02-24T01:07:03.778Z,4.82
2023-02-24T01:09:32.748Z,3.75
2023-02-24T01:12:38.481Z,3.65
2023-02-24T01:15:09.126Z,4.35
2023-02-24T01:17:37.889Z,3.80
2023-02-24T01:20:16.761Z,3.70
2023-02-24T01:22:45.150Z,3.75
2023-02-24T01:25:12.540Z,4.07
2023-02-24T01:27:43.071Z,4.10
2023-02-24T01:30:16.147Z,4.13
2023-02-24T01:32:44.688Z,4.20
2023-02-24T01:35:12.280Z,3.92
2023-02-24T01:37:40.235Z,3.97
2023-02-24T01:40:18.009Z,4.15
2023-02-24T01:42:47.683Z,3.80
2023-02-24T01:45:17.384Z,3.78
2023-02-24T01:47:47.342Z,4.50
2023-02-24T01:50:17.420Z,3.63
2023-02-24T01:52:47.302Z,5.22
2023-02-24T01:55:23.864Z,3.88
2023-02-24T01:57:52.584Z,3.75
2023-02-24T02:00:40.409Z,3.97
2023-02-24T02:03:29.720Z,3.78
2023-02-24T02:06:01.225Z,3.72
2023-02-24T02:08:29.167Z,4.18
2023-02-24T02:10:58.952Z,3.65
2023-02-24T02:13:27.884Z,4.63
2023-02-24T02:15:58.520Z,4.35
2023-02-24T02:18:46.236Z,4.05
2023-02-24T02:21:15.454Z,3.90
2023-02-24T02:23:48.924Z,4.05
2023-02-24T02:26:19.445Z,3.80
2023-02-24T02:28:46.906Z,5.18
2023-02-24T02:31:33.310Z,3.80
2023-02-24T02:34:21.309Z,4.10
2023-02-24T02:39:15.929Z,3.80
2023-02-24T02:41:49.405Z,4.40
2023-02-24T02:44:35.262Z,3.97
2023-02-24T02:47:09.025Z,4.22
2023-02-24T02:49:41.798Z,4.18
2023-02-24T02:52:17.912Z,4.70
2023-02-24T02:54:56.210Z,4.35
2023-02-24T02:57:28.942Z,4.00
2023-02-24T02:59:59.335Z,4.13
2023-02-24T03:02:29.811Z,4.40
2023-02-24T03:05:02.168Z,4.70
2023-02-24T03:07:32.682Z,4.50
2023-02-24T03:10:02.081Z,4.50
2023-02-24T03:12:32.762Z,4.45
2023-02-24T03:15:03.200Z,4.30
2023-02-24T03:17:36.947Z,5.28
2023-02-24T03:20:17.891Z,4.32
2023-02-24T03:22:52.026Z,4.47
2023-02-24T03:25:24.269Z,4.63
2023-02-24T03:28:01.747Z,4.18
2023-02-24T03:30:40.129Z,4.72
2023-02-24T03:33:23.793Z,4.18
2023-02-24T03:35:51.884Z,4.40
2023-02-24T03:38:23.276Z,4.50
2023-02-24T03:40:52.463Z,4.28
2023-02-24T03:43:31.056Z,4.50
2023-02-24T03:46:01.354Z,5.13
2023-02-24T03:48:30.566Z,4.47
2023-02-24T03:50:59.563Z,4.65
2023-02-24T03:53:47.244Z,4.65
2023-02-24T03:56:33.479Z,4.50
2023-02-24T03:59:29.234Z,4.70
2023-02-24T04:02:01.174Z,4.40
2023-02-24T04:04:36.457Z,4.45
2023-02-24T04:07:14.259Z,5.18
2023-02-24T04:09:41.828Z,4.97
2023-02-24T04:12:16.943Z,7.22
2023-02-24T04:14:48.733Z,5.10
2023-02-24T04:17:37.714Z,8.05
2023-02-24T04:20:15.786Z,4.85
2023-02-24T04:22:49.807Z,5.32
2023-02-24T04:25:19.767Z,5.40
2023-02-24T04:27:48.694Z,5.82
2023-02-24T04:30:18.218Z,5.03
2023-02-24T04:32:45.852Z,5.00
2023-02-24T04:35:16.758Z,5.00
2023-02-24T04:37:50.578Z,4.90
2023-02-24T04:40:22.030Z,5.00
2023-02-24T04:42:51.976Z,5.47
2023-02-24T04:45:22.744Z,5.35
2023-02-24T04:47:51.370Z,4.90
2023-02-24T04:50:25.998Z,5.20
2023-02-24T04:52:53.502Z,5.05
2023-02-24T04:55:22.403Z,5.43
2023-02-24T04:57:50.402Z,4.95
2023-02-24T05:00:21.241Z,4.80
2023-02-24T05:02:52.128Z,5.78
2023-02-24T05:05:26.357Z,5.00
2023-02-24T05:07:54.667Z,4.90
2023-02-24T05:10:27.957Z,5.03
2023-02-24T05:13:00.799Z,4.72
2023-02-24T05:15:33.808Z,5.90
2023-02-24T05:18:01.912Z,4.90
2023-02-24T05:20:48.194Z,4.57
2023-02-24T05:23:16.988Z,5.22
2023-02-24T05:25:44.501Z,4.68
2023-02-24T05:28:11.954Z,5.20
2023-02-24T05:30:39.404Z,6.10
2023-02-24T05:33:08.171Z,5.20
2023-02-24T05:35:37.285Z,5.30
2023-02-24T05:38:08.191Z,5.90
2023-02-24T05:40:35.877Z,5.53
2023-02-24T05:43:04.905Z,4.80
2023-02-24T05:45:32.822Z,5.22
2023-02-24T05:48:00.405Z,5.13
2023-02-24T05:50:27.927Z,5.00
2023-02-24T05:52:56.023Z,6.03
2023-02-24T05:55:23.764Z,6.50
2023-02-24T05:57:51.171Z,6.50
2023-02-24T06:00:18.772Z,6.32
2023-02-24T06:02:49.793Z,6.13
2023-02-24T06:05:25.636Z,8.15
2023-02-24T06:08:04.275Z,10.07
2023-02-24T06:10:33.547Z,20.95
2023-02-24T06:13:02.230Z,7.82
2023-02-24T06:15:30.435Z,7.07
2023-02-24T06:18:00.874Z,6.18
2023-02-24T06:20:29.562Z,5.93
2023-02-24T06:22:58.351Z,6.65
2023-02-24T06:25:28.001Z,6.68
2023-02-24T06:27:56.303Z,6.53
2023-02-24T06:30:24.717Z,7.90
2023-02-24T06:32:52.580Z,8.45
2023-02-24T06:35:20.423Z,7.95
2023-02-24T06:37:48.134Z,8.68
2023-02-24T06:40:18.592Z,8.90
2023-02-24T06:42:49.776Z,11.18
2023-02-24T06:45:17.599Z,8.50
2023-02-24T06:47:48.789Z,9.57
2023-02-24T06:50:20.214Z,7.30
2023-02-24T06:52:48.109Z,6.85
2023-02-24T06:55:27.972Z,7.05
2023-02-24T06:57:57.320Z,7.88
2023-02-24T07:00:42.970Z,7.05
2023-02-24T07:03:17.547Z,7.03
2023-02-24T07:05:50.636Z,8.85
2023-02-24T07:08:18.903Z,7.95
2023-02-24T07:10:48.382Z,7.93
2023-02-24T07:13:16.192Z,7.07
2023-02-24T07:15:49.146Z,5.97
2023-02-24T07:18:17.926Z,6.00
2023-02-24T07:20:46.654Z,6.78
2023-02-24T07:23:15.172Z,7.15
2023-02-24T07:25:43.441Z,6.90
2023-02-24T07:28:11.461Z,6.88
2023-02-24T07:30:40.321Z,5.30
2023-02-24T07:33:09.295Z,5.22
2023-02-24T07:35:36.820Z,6.07
2023-02-24T07:38:05.652Z,7.32
2023-02-24T07:40:33.950Z,6.35
2023-02-24T07:43:02.174Z,6.72
2023-02-24T07:45:29.858Z,6.15
2023-02-24T07:47:58.601Z,9.27
2023-02-24T07:50:28.216Z,7.50
2023-02-24T07:52:55.618Z,6.82
2023-02-24T07:55:25.812Z,6.65
2023-02-24T07:57:54.796Z,6.43
2023-02-24T08:00:28.240Z,6.90
2023-02-24T08:02:56.821Z,5.70
2023-02-24T08:05:24.717Z,5.95
2023-02-24T08:07:52.304Z,6.10
2023-02-24T08:10:26.801Z,6.35
2023-02-24T08:12:55.912Z,6.63
2023-02-24T08:15:34.019Z,7.85
2023-02-24T08:18:02.019Z,7.75
2023-02-24T08:20:36.235Z,7.40
2023-02-24T08:23:06.515Z,6.77
2023-02-24T08:25:36.927Z,8.75
2023-02-24T08:28:11.573Z,7.13
2023-02-24T08:30:44.921Z,8.13
2023-02-24T08:33:16.982Z,7.28
2023-02-24T08:35:45.389Z,7.15
2023-02-24T08:38:15.890Z,6.80
2023-02-24T08:40:50.853Z,6.82
2023-02-24T08:43:24.993Z,6.60
2023-02-24T08:45:57.127Z,7.68
2023-02-24T08:48:38.051Z,8.35
2023-02-24T08:51:07.763Z,8.02
2023-02-24T08:53:35.520Z,8.52
2023-02-24T08:56:11.423Z,8.80
2023-02-24T08:58:49.242Z,6.55
2023-02-24T09:01:19.338Z,6.15
2023-02-24T09:03:48.439Z,7.00
2023-02-24T09:06:18.023Z,7.50
2023-02-24T09:08:46.280Z,7.25
2023-02-24T09:11:16.858Z,6.95
2023-02-24T09:13:51.866Z,6.75
2023-02-24T09:16:20.400Z,7.25
2023-02-24T09:19:08.143Z,8.27
2023-02-24T09:21:47.930Z,7.70
2023-02-24T09:24:16.887Z,6.93
2023-02-24T09:26:44.529Z,7.95
2023-02-24T09:29:31.400Z,8.98
2023-02-24T09:32:04.730Z,7.75
2023-02-24T09:34:36.560Z,8.82
2023-02-24T09:37:04.862Z,11.63
2023-02-24T09:39:55.681Z,7.30
2023-02-24T09:42:24.538Z,10.70
2023-02-24T09:44:55.672Z,10.52
2023-02-24T09:47:54.671Z,7.72
2023-02-24T09:50:47.355Z,8.77
2023-02-24T09:53:17.590Z,8.48
2023-02-24T09:56:03.914Z,8.45
2023-02-24T09:58:43.029Z,7.90
2023-02-24T10:01:33.485Z,9.18
2023-02-24T10:04:18.534Z,8.82
2023-02-24T10:06:48.846Z,8.93
2023-02-24T10:09:24.643Z,8.80
2023-02-24T10:11:53.714Z,9.70
2023-02-24T10:14:43.794Z,9.73
2023-02-24T10:17:25.125Z,8.32
2023-02-24T10:20:01.239Z,8.85
2023-02-24T10:22:39.849Z,9.70
2023-02-24T10:25:22.426Z,10.57
2023-02-24T10:27:53.192Z,9.70
2023-02-24T10:30:28.139Z,10.43
2023-02-24T10:33:01.087Z,10.18
2023-02-24T10:35:33.643Z,11.10
2023-02-24T10:38:08.704Z,11.52
2023-02-24T10:40:47.179Z,11.70
2023-02-24T10:43:19.265Z,11.68
2023-02-24T10:45:47.571Z,12.95
2023-02-24T10:48:41.120Z,13.73
2023-02-24T10:51:11.946Z,9.77
2023-02-24T10:53:39.509Z,8.68
2023-02-24T10:56:41.972Z,8.52
2023-02-24T10:59:31.020Z,8.52
2023-02-24T11:02:29.922Z,9.00
2023-02-24T11:04:58.591Z,9.23
2023-02-24T11:07:33.737Z,8.65
2023-02-24T11:13:09.312Z,8.45
2023-02-24T11:15:57.887Z,7.72
2023-02-24T11:18:26.543Z,8.27
2023-02-24T11:20:59.656Z,8.05
2023-02-24T11:23:33.197Z,9.00
2023-02-24T11:26:04.653Z,8.50
2023-02-24T11:28:32.125Z,8.50
2023-02-24T11:30:59.700Z,8.27
2023-02-24T11:33:32.929Z,8.35
2023-02-24T11:36:16.254Z,8.32
2023-02-24T11:39:16.566Z,8.13
2023-02-24T11:41:46.690Z,8.70
2023-02-24T11:44:21.396Z,8.70
2023-02-24T11:46:57.756Z,9.48
2023-02-24T11:49:34.246Z,8.82
2023-02-24T11:52:04.727Z,7.78
2023-02-24T11:54:39.956Z,7.53
2023-02-24T11:59:40.390Z,8.30
2023-02-24T12:02:10.852Z,7.32
2023-02-24T12:04:51.159Z,7.53
2023-02-24T12:07:30.674Z,6.68
2023-02-24T12:10:16.739Z,7.57
2023-02-24T12:12:44.732Z,8.43
2023-02-24T12:15:20.281Z,7.80
2023-02-24T12:17:58.051Z,8.35
2023-02-24T12:20:31.300Z,8.52
2023-02-24T12:23:15.893Z,8.30
2023-02-24T12:26:09.132Z,9.30
2023-02-24T12:28:36.612Z,8.55
2023-02-24T12:31:08.840Z,8.45
2023-02-24T12:33:40.614Z,8.55
2023-02-24T12:36:28.737Z,7.68
2023-02-24T12:39:00.915Z,7.55
2023-02-24T12:41:40.817Z,7.18
2023-02-24T12:44:14.465Z,8.35
2023-02-24T12:46:41.930Z,8.18
2023-02-24T12:49:16.342Z,7.30
2023-02-24T12:52:09.441Z,8.30
2023-02-24T12:54:43.253Z,7.32
2023-02-24T12:57:16.923Z,7.53
2023-02-24T12:59:44.614Z,8.07
2023-02-24T13:02:20.859Z,8.00
2023-02-24T13:04:56.477Z,7.47
2023-02-24T13:07:28.887Z,8.05
2023-02-24T13:10:12.447Z,8.65
2023-02-24T13:12:56.587Z,8.77
2023-02-24T13:15:25.812Z,8.27
2023-02-24T13:17:57.929Z,7.20
2023-02-24T13:20:27.562Z,8.02
2023-02-24T13:22:55.389Z,8.00
2023-02-24T13:25:31.046Z,7.55
2023-02-24T13:28:00.876Z,8.43
2023-02-24T13:30:39.874Z,7.60
2023-02-24T13:33:07.410Z,9.40
2023-02-24T13:35:36.416Z,8.68
2023-02-24T13:38:11.954Z,9.65
2023-02-24T13:40:39.458Z,7.55
2023-02-24T13:43:22.675Z,8.18
2023-02-24T13:45:55.459Z,8.98
2023-02-24T13:48:23.101Z,7.68
2023-02-24T13:50:59.379Z,8.00
2023-02-24T13:53:37.476Z,8.38
2023-02-24T13:56:08.083Z,9.68
2023-02-24T13:58:35.485Z,8.50
2023-02-24T14:01:08.959Z,8.68
2023-02-24T14:03:36.926Z,8.55
2023-02-24T14:06:05.142Z,9.15
2023-02-24T14:08:32.595Z,10.23
2023-02-24T14:11:03.642Z,9.20
2023-02-24T14:13:34.282Z,9.35
2023-02-24T14:16:05.976Z,9.00
2023-02-24T14:18:33.512Z,9.10
2023-02-24T14:21:01.070Z,9.55
2023-02-24T14:23:35.478Z,8.73
2023-02-24T14:26:05.393Z,8.85
2023-02-24T14:28:37.569Z,10.20
2023-02-24T14:31:15.231Z,9.75
2023-02-24T14:33:44.352Z,9.60
2023-02-24T14:36:17.136Z,10.68
2023-02-24T14:38:45.026Z,9.63
2023-02-24T14:41:30.418Z,9.88
2023-02-24T14:43:57.989Z,9.30
2023-02-24T14:46:25.845Z,9.75
2023-02-24T14:48:55.198Z,9.70
2023-02-24T14:51:28.644Z,10.27
2023-02-24T14:53:57.699Z,9.88
2023-02-24T14:56:28.009Z,9.98
2023-02-24T14:58:58.886Z,10.05
2023-02-24T15:01:39.066Z,9.40
2023-02-24T15:04:15.738Z,10.48
2023-02-24T15:06:44.683Z,10.00
2023-02-24T15:09:17.346Z,10.32
2023-02-24T15:11:45.348Z,10.77
2023-02-24T15:14:27.091Z,10.50
2023-02-24T15:17:00.426Z,11.07
2023-02-24T15:19:28.185Z,11.05
2023-02-24T15:21:55.709Z,11.57
2023-02-24T15:24:34.330Z,11.13
2023-02-24T15:27:03.238Z,11.63
2023-02-24T15:29:31.884Z,10.65
2023-02-24T15:32:00.876Z,11.70
2023-02-24T15:34:33.423Z,10.70
2023-02-24T15:37:04.436Z,11.00
2023-02-24T15:39:33.262Z,11.52
2023-02-24T15:42:19.561Z,12.30
2023-02-24T15:44:54.292Z,11.85
2023-02-24T15:47:22.007Z,12.45
2023-02-24T15:49:49.510Z,12.73
2023-02-24T15:52:21.282Z,13.57
2023-02-24T15:54:48.965Z,13.57
2023-02-24T15:57:17.462Z,15.90
2023-02-24T15:59:45.777Z,15.45
2023-02-24T16:02:23.328Z,15.90
2023-02-24T16:04:51.825Z,15.07
2023-02-24T16:07:21.540Z,16.27
2023-02-24T16:09:50.783Z,17.63
2023-02-24T16:12:21.833Z,17.02
2023-02-24T16:14:50.385Z,17.40
2023-02-24T16:17:34.950Z,17.85
2023-02-24T16:20:08.501Z,18.35
2023-02-24T16:22:36.561Z,19.95
2023-02-24T16:25:05.089Z,19.75
2023-02-24T16:27:32.551Z,26.08
2023-02-24T16:29:59.959Z,26.02
2023-02-24T16:32:27.781Z,26.10
2023-02-24T16:34:56.396Z,25.13
2023-02-24T16:37:32.866Z,23.23
2023-02-24T16:40:00.387Z,22.58
2023-02-24T16:42:27.849Z,24.77
2023-02-24T16:44:55.351Z,27.10
2023-02-24T16:47:24.240Z,29.48
2023-02-24T16:49:55.432Z,29.35
2023-02-24T16:52:24.800Z,25.95
2023-02-24T16:54:52.264Z,28.00
2023-02-24T16:57:25.338Z,28.75
2023-02-24T16:59:53.102Z,28.90
2023-02-24T17:02:22.532Z,29.65
2023-02-24T17:04:50.091Z,29.05
2023-02-24T17:07:20.330Z,30.63
2023-02-24T17:09:47.918Z,29.00
2023-02-24T17:12:16.312Z,30.48
2023-02-24T17:14:43.846Z,28.20
2023-02-24T17:17:11.787Z,28.23
2023-02-24T17:19:39.537Z,29.38
2023-02-24T17:22:07.077Z,28.90
2023-02-24T17:24:34.477Z,28.60
2023-02-24T17:27:03.939Z,32.75
2023-02-24T17:29:31.361Z,34.42
2023-02-24T17:31:59.110Z,34.47
2023-02-24T17:34:27.393Z,36.60
2023-02-24T17:36:55.399Z,57.10
2023-02-24T17:39:23.135Z,37.90
2023-02-24T17:41:50.641Z,43.17
2023-02-24T17:44:18.396Z,109.88
2023-02-24T17:46:45.924Z,97.70
2023-02-24T17:49:13.494Z,99.28
2023-02-24T17:51:40.976Z,88.25
2023-02-24T17:54:08.526Z,83.85
2023-02-24T17:56:36.113Z,83.32
2023-02-24T17:59:03.681Z,85.18
2023-02-24T18:01:31.297Z,83.55
2023-02-24T18:03:58.833Z,87.25
2023-02-24T18:06:26.439Z,85.50
2023-02-24T18:08:54.705Z,84.38
2023-02-24T18:11:22.191Z,86.07
2023-02-24T18:13:52.688Z,86.75
2023-02-24T18:16:20.880Z,85.05
2023-02-24T18:18:48.830Z,87.53
2023-02-24T18:21:16.261Z,97.15
2023-02-24T18:23:43.878Z,109.63
2023-02-24T18:26:12.594Z,99.90
2023-02-24T18:28:40.935Z,84.75
2023-02-24T18:31:22.005Z,80.05
2023-02-24T18:33:50.207Z,78.68
2023-02-24T18:36:17.937Z,50.30
2023-02-24T18:38:45.758Z,82.22
2023-02-24T18:41:18.713Z,78.07
2023-02-24T18:43:50.229Z,61.22
2023-02-24T18:46:18.717Z,61.78
2023-02-24T18:48:46.855Z,65.00
2023-02-24T18:51:16.890Z,63.20
2023-02-24T18:53:44.436Z,60.05
2023-02-24T18:56:14.129Z,59.83
2023-02-24T18:58:41.710Z,53.33
2023-02-24T19:01:16.627Z,52.28
2023-02-24T19:03:44.537Z,58.08
2023-02-24T19:06:12.601Z,71.70
2023-02-24T19:08:40.904Z,70.50
2023-02-24T19:11:15.071Z,68.57
2023-02-24T19:13:42.737Z,52.95
2023-02-24T19:16:10.248Z,58.10
2023-02-24T19:18:37.792Z,46.33
2023-02-24T19:21:06.513Z,44.72
2023-02-24T19:23:34.153Z,42.08
2023-02-24T19:26:01.539Z,38.45
2023-02-24T19:28:29.018Z,36.53
2023-02-24T19:30:56.750Z,39.40
2023-02-24T19:33:24.292Z,38.22
2023-02-24T19:35:53.457Z,37.40
2023-02-24T19:38:23.853Z,37.95
2023-02-24T19:40:51.314Z,42.22
2023-02-24T19:43:19.989Z,40.88
2023-02-24T19:45:47.425Z,44.95
2023-02-24T19:48:14.862Z,41.50
2023-02-24T19:50:42.567Z,40.22
2023-02-24T19:53:09.959Z,40.70
2023-02-24T19:55:37.690Z,42.33
2023-02-24T19:58:05.394Z,42.50
2023-02-24T20:00:32.953Z,42.53
2023-02-24T20:03:00.376Z,42.40
2023-02-24T20:05:27.853Z,42.75
2023-02-24T20:07:55.276Z,43.85
2023-02-24T20:10:22.760Z,42.70
2023-02-24T20:12:50.213Z,45.15
2023-02-24T20:15:17.695Z,43.53
2023-02-24T20:17:45.454Z,42.08
2023-02-24T20:20:13.232Z,43.40
2023-02-24T20:22:40.805Z,41.88
2023-02-24T20:25:08.659Z,47.20
2023-02-24T20:27:36.347Z,45.75
2023-02-24T20:30:03.768Z,51.00
2023-02-24T20:32:31.452Z,46.05
2023-02-24T20:34:58.987Z,46.47
2023-02-24T20:37:26.423Z,47.38
2023-02-24T20:39:53.826Z,48.92
2023-02-24T20:42:21.383Z,53.00
2023-02-24T20:44:48.846Z,49.78
2023-02-24T20:47:18.222Z,50.17
2023-02-24T20:49:46.841Z,51.28
2023-02-24T20:52:14.237Z,52.50
2023-02-24T20:54:43.375Z,53.35
2023-02-24T20:57:11.020Z,53.30
2023-02-24T20:59:41.603Z,55.58
2023-02-24T21:02:11.687Z,53.97
2023-02-24T21:04:39.901Z,54.22
2023-02-24T21:07:08.252Z,56.20
2023-02-24T21:09:37.163Z,53.97
2023-02-24T21:12:05.244Z,53.55
2023-02-24T21:14:32.747Z,52.33
2023-02-24T21:17:00.163Z,52.25
2023-02-24T21:19:27.753Z,49.17
2023-02-24T21:21:55.148Z,50.20
2023-02-24T21:24:24.059Z,49.80
2023-02-24T21:26:51.486Z,48.92
2023-02-24T21:29:18.917Z,50.25
2023-02-24T21:31:46.839Z,46.60
2023-02-24T21:34:16.686Z,45.47
2023-02-24T21:36:44.320Z,44.63
2023-02-24T21:39:14.862Z,44.72
2023-02-24T21:41:42.904Z,43.28
2023-02-24T21:44:14.678Z,43.88
2023-02-24T21:46:42.714Z,42.72
2023-02-24T21:49:14.773Z,44.20
2023-02-24T21:51:42.304Z,42.65
2023-02-24T21:54:12.455Z,46.50
2023-02-24T21:56:40.227Z,44.53
2023-02-24T21:59:09.743Z,43.40
2023-02-24T22:01:38.430Z,43.90
2023-02-24T22:04:07.033Z,43.10
2023-02-24T22:06:36.089Z,41.53
2023-02-24T22:09:04.595Z,40.22
2023-02-24T22:11:32.877Z,39.30
2023-02-24T22:14:00.447Z,41.45
2023-02-24T22:16:28.275Z,36.60
2023-02-24T22:18:55.934Z,37.10
2023-02-24T22:21:24.722Z,36.13
2023-02-24T22:23:53.542Z,36.65
2023-02-24T22:26:23.669Z,37.45
2023-02-24T22:28:51.319Z,37.20
2023-02-24T22:31:20.957Z,39.33
2023-02-24T22:33:48.952Z,39.15
2023-02-24T22:36:21.572Z,38.58
2023-02-24T22:38:49.276Z,38.03
2023-02-24T22:41:17.827Z,38.38
2023-02-24T22:43:45.393Z,36.88
2023-02-24T22:46:17.681Z,38.70
2023-02-24T22:48:45.432Z,37.00
2023-02-24T22:51:13.327Z,38.67
2023-02-24T22:53:42.116Z,39.72
2023-02-24T22:56:11.076Z,41.47
2023-02-24T22:58:38.680Z,40.47
2023-02-24T23:01:13.597Z,39.20
2023-02-24T23:03:41.520Z,41.28
2023-02-24T23:06:10.347Z,40.50
2023-02-24T23:08:39.215Z,41.28
2023-02-24T23:11:14.148Z,41.95
2023-02-24T23:13:42.379Z,40.28
2023-02-24T23:16:11.436Z,40.22
2023-02-24T23:18:38.965Z,39.67
2023-02-24T23:21:11.082Z,39.17
2023-02-24T23:23:38.924Z,38.10
2023-02-24T23:26:06.470Z,38.60
2023-02-24T23:28:35.126Z,38.88
2023-02-24T23:31:03.000Z,38.05
2023-02-24T23:33:30.645Z,37.85
2023-02-24T23:36:02.933Z,39.00
2023-02-24T23:38:30.396Z,36.80
2023-02-24T23:40:57.814Z,36.92
2023-02-24T23:43:25.301Z,37.45
2023-02-24T23:45:52.765Z,36.15
2023-02-24T23:48:20.793Z,37.13
2023-02-24T23:50:49.380Z,38.03
2023-02-24T23:53:16.869Z,37.05
2023-02-24T23:55:44.590Z,37.17
2023-02-24T23:58:12.061Z,38.95
